Time,TemperatureF,DewpointF,PressureIn,WindDirection,WindDirectionDegrees,WindSpeedMPH,WindSpeedGustMPH,Humidity,HourlyPrecipIn,Conditions,Clouds,dailyrainin,SoftwareType,DateUTC
2014-04-21 00:01:00,47.7,34.1,30.28,ENE,68,1.8,1.8,59,0.00,,,0.00,WUHU216HW,2014-04-21 04:01:00,
2014-04-21 00:02:00,47.5,33.5,30.28,ENE,68,1.6,1.8,58,0.00,,,0.00,WUHU216HW,2014-04-21 04:02:00,
2014-04-21 00:07:00,47.5,33.9,30.27,NE,45,1.1,2.5,59,0.00,,,0.00,WUHU216HW,2014-04-21 04:07:00,
2014-04-21 00:12:00,47.5,33.9,30.28,NE,45,1.1,2.5,59,0.00,,,0.00,WUHU216HW,2014-04-21 04:12:00,
2014-04-21 00:17:00,47.2,34.0,30.27,ENE,68,0.9,1.3,60,0.00,,,0.00,WUHU216HW,2014-04-21 04:17:00,
2014-04-21 00:22:00,47.0,33.4,30.27,ENE,68,0.0,0.9,59,0.00,,,0.00,WUHU216HW,2014-04-21 04:22:00,
2014-04-21 00:27:00,46.8,33.2,30.27,ENE,68,0.4,0.4,59,0.00,,,0.00,WUHU216HW,2014-04-21 04:27:00,
2014-04-21 00:32:00,46.6,33.0,30.27,ENE,68,0.0,0.4,59,0.00,,,0.00,WUHU216HW,2014-04-21 04:32:00,
2014-04-21 00:37:00,46.4,32.9,30.26,ENE,68,0.4,0.4,59,0.00,,,0.00,WUHU216HW,2014-04-21 04:37:00,
2014-04-21 00:42:00,46.1,32.9,30.26,ENE,68,0.4,0.4,60,0.00,,,0.00,WUHU216HW,2014-04-21 04:42:00,
2014-04-21 00:47:00,45.9,32.4,30.26,ENE,68,0.0,0.4,59,0.00,,,0.00,WUHU216HW,2014-04-21 04:47:00,
2014-04-21 00:52:00,45.7,32.7,30.26,ENE,68,0.0,0.0,60,0.00,,,0.00,WUHU216HW,2014-04-21 04:52:00,
2014-04-21 00:57:00,45.7,33.0,30.26,ENE,68,0.0,0.0,61,0.00,,,0.00,WUHU216HW,2014-04-21 04:57:00,
2014-04-21 01:02:00,45.7,32.7,30.26,ENE,68,0.4,0.4,60,0.00,,,0.00,WUHU216HW,2014-04-21 05:02:00,
2014-04-21 01:07:00,45.5,33.3,30.26,ENE,68,0.4,1.1,62,0.00,,,0.00,WUHU216HW,2014-04-21 05:07:00,
2014-04-21 01:12:00,45.5,33.3,30.26,ENE,68,0.4,1.1,62,0.00,,,0.00,WUHU216HW,2014-04-21 05:12:00,
2014-04-21 01:17:00,45.5,32.9,30.26,ENE,68,0.0,0.4,61,0.00,,,0.00,WUHU216HW,2014-04-21 05:17:00,
2014-04-21 01:22:00,45.2,32.6,30.26,ENE,68,0.7,0.7,61,0.00,,,0.00,WUHU216HW,2014-04-21 05:22:00,
2014-04-21 01:27:00,45.0,32.4,30.26,East,90,0.4,0.7,61,0.00,,,0.00,WUHU216HW,2014-04-21 05:27:00,
2014-04-21 01:32:00,45.0,33.1,30.26,ENE,68,0.4,0.9,63,0.00,,,0.00,WUHU216HW,2014-04-21 05:32:00,
2014-04-21 01:37:00,45.0,32.8,30.26,ENE,68,0.0,0.9,62,0.00,,,0.00,WUHU216HW,2014-04-21 05:37:00,
2014-04-21 01:42:00,44.6,32.0,30.25,ENE,68,0.0,0.0,61,0.00,,,0.00,WUHU216HW,2014-04-21 05:42:00,
2014-04-21 01:47:00,44.5,32.7,30.25,ENE,68,0.0,0.0,63,0.00,,,0.00,WUHU216HW,2014-04-21 05:47:00,
2014-04-21 01:52:00,44.3,32.5,30.25,ENE,68,0.0,0.0,63,0.00,,,0.00,WUHU216HW,2014-04-21 05:52:00,
2014-04-21 01:57:00,43.9,32.1,30.25,ENE,68,0.7,0.7,63,0.00,,,0.00,WUHU216HW,2014-04-21 05:57:00,
2014-04-21 02:02:00,43.7,32.0,30.25,ENE,68,0.7,1.1,63,0.00,,,0.00,WUHU216HW,2014-04-21 06:02:00,
2014-04-21 02:07:00,43.9,32.9,30.25,NE,45,0.9,1.1,65,0.00,,,0.00,WUHU216HW,2014-04-21 06:07:00,
2014-04-21 02:12:00,44.1,32.7,30.24,ENE,68,0.4,1.1,64,0.00,,,0.00,WUHU216HW,2014-04-21 06:12:00,
2014-04-21 02:17:00,43.9,32.5,30.24,ENE,68,1.1,1.1,64,0.00,,,0.00,WUHU216HW,2014-04-21 06:17:00,
2014-04-21 02:22:00,43.7,32.8,30.24,ENE,68,0.4,1.1,65,0.00,,,0.00,WUHU216HW,2014-04-21 06:22:00,
2014-04-21 02:27:00,43.6,33.0,30.23,ENE,68,0.0,0.7,66,0.00,,,0.00,WUHU216HW,2014-04-21 06:27:00,
2014-04-21 02:32:00,43.0,32.9,30.23,ENE,68,0.0,0.4,67,0.00,,,0.00,WUHU216HW,2014-04-21 06:32:00,
2014-04-21 02:37:00,42.8,31.9,30.23,ENE,68,0.0,0.4,65,0.00,,,0.00,WUHU216HW,2014-04-21 06:37:00,
2014-04-21 02:42:00,42.8,32.2,30.23,ENE,68,0.0,0.0,66,0.00,,,0.00,WUHU216HW,2014-04-21 06:42:00,
2014-04-21 02:47:00,42.5,32.3,30.23,ENE,68,0.0,0.0,67,0.00,,,0.00,WUHU216HW,2014-04-21 06:47:00,
2014-04-21 02:52:00,42.3,31.8,30.23,ENE,68,0.0,0.0,66,0.00,,,0.00,WUHU216HW,2014-04-21 06:52:00,
2014-04-21 02:57:00,42.1,32.0,30.23,ENE,68,0.0,0.0,67,0.00,,,0.00,WUHU216HW,2014-04-21 06:57:00,
2014-04-21 03:02:00,42.1,32.0,30.23,ENE,68,0.0,0.0,67,0.00,,,0.00,WUHU216HW,2014-04-21 07:02:00,
2014-04-21 03:07:00,42.1,32.0,30.23,ENE,68,0.0,0.0,67,0.00,,,0.00,WUHU216HW,2014-04-21 07:07:00,
2014-04-21 03:12:00,42.1,32.0,30.23,ENE,68,0.0,0.0,67,0.00,,,0.00,WUHU216HW,2014-04-21 07:12:00,
2014-04-21 03:17:00,41.8,31.6,30.23,ENE,68,0.0,0.0,67,0.00,,,0.00,WUHU216HW,2014-04-21 07:17:00,
2014-04-21 03:22:00,41.6,32.2,30.22,ESE,113,0.0,0.7,69,0.00,,,0.00,WUHU216HW,2014-04-21 07:22:00,
2014-04-21 03:27:00,41.6,32.2,30.22,East,90,0.0,0.9,69,0.00,,,0.00,WUHU216HW,2014-04-21 07:27:00,
2014-04-21 03:32:00,41.4,31.7,30.22,East,90,0.0,0.9,68,0.00,,,0.00,WUHU216HW,2014-04-21 07:32:00,
2014-04-21 03:37:00,41.4,31.2,30.22,East,90,0.0,0.0,67,0.00,,,0.00,WUHU216HW,2014-04-21 07:37:00,
2014-04-21 03:42:00,41.0,31.7,30.22,WSW,248,0.9,1.1,69,0.00,,,0.00,WUHU216HW,2014-04-21 07:42:00,
2014-04-21 03:47:00,40.3,31.7,30.22,WSW,248,1.1,1.1,71,0.00,,,0.00,WUHU216HW,2014-04-21 07:47:00,
2014-04-21 03:52:00,39.8,31.8,30.23,WSW,248,0.4,1.1,73,0.00,,,0.00,WUHU216HW,2014-04-21 07:52:00,
2014-04-21 03:57:00,39.4,32.5,30.22,WSW,248,0.2,1.1,76,0.00,,,0.00,WUHU216HW,2014-04-21 07:57:00,
2014-04-21 04:02:00,39.2,32.0,30.22,WSW,248,0.0,1.1,75,0.00,,,0.00,WUHU216HW,2014-04-21 08:02:00,
2014-04-21 04:07:00,39.2,32.0,30.22,WSW,248,0.7,0.9,75,0.00,,,0.00,WUHU216HW,2014-04-21 08:07:00,
2014-04-21 04:12:00,39.2,32.3,30.22,WSW,248,0.4,0.9,76,0.00,,,0.00,WUHU216HW,2014-04-21 08:12:00,
2014-04-21 04:17:00,39.2,32.3,30.22,WSW,248,0.4,0.9,76,0.00,,,0.00,WUHU216HW,2014-04-21 08:17:00,
2014-04-21 04:22:00,39.1,32.1,30.22,WSW,248,0.0,0.9,76,0.00,,,0.00,WUHU216HW,2014-04-21 08:22:00,
2014-04-21 04:27:00,38.9,32.0,30.22,WSW,248,0.0,0.0,76,0.00,,,0.00,WUHU216HW,2014-04-21 08:27:00,
2014-04-21 04:32:00,38.5,31.6,30.22,WSW,248,0.2,0.2,76,0.00,,,0.00,WUHU216HW,2014-04-21 08:32:00,
2014-04-21 04:37:00,38.2,31.2,30.22,WSW,248,0.7,1.3,76,0.00,,,0.00,WUHU216HW,2014-04-21 08:37:00,
2014-04-21 04:42:00,38.0,31.4,30.22,SW,225,1.1,1.3,77,0.00,,,0.00,WUHU216HW,2014-04-21 08:42:00,
2014-04-21 04:47:00,37.8,31.6,30.22,WSW,248,1.1,1.3,78,0.00,,,0.00,WUHU216HW,2014-04-21 08:47:00,
2014-04-21 04:52:00,37.8,31.6,30.22,SW,225,0.9,1.3,78,0.00,,,0.00,WUHU216HW,2014-04-21 08:52:00,
2014-04-21 04:57:00,37.8,31.9,30.22,SW,225,0.7,1.1,79,0.00,,,0.00,WUHU216HW,2014-04-21 08:57:00,
2014-04-21 05:02:00,37.6,31.7,30.22,WSW,248,0.0,0.9,79,0.00,,,0.00,WUHU216HW,2014-04-21 09:02:00,
2014-04-21 05:07:00,37.4,32.1,30.22,WSW,248,0.0,0.7,81,0.00,,,0.00,WUHU216HW,2014-04-21 09:07:00,
2014-04-21 05:12:00,37.1,31.5,30.22,WSW,248,0.0,0.4,80,0.00,,,0.00,WUHU216HW,2014-04-21 09:12:00,
2014-04-21 05:17:00,36.9,31.3,30.22,SW,225,0.0,0.0,80,0.00,,,0.00,WUHU216HW,2014-04-21 09:17:00,
2014-04-21 05:22:00,36.7,30.8,30.22,SW,225,0.0,0.0,79,0.00,,,0.00,WUHU216HW,2014-04-21 09:22:00,
2014-04-21 05:27:00,36.5,31.0,30.22,SW,225,0.0,0.0,80,0.00,,,0.00,WUHU216HW,2014-04-21 09:27:00,
2014-04-21 05:32:00,36.5,31.2,30.22,SW,225,0.0,0.0,81,0.00,,,0.00,WUHU216HW,2014-04-21 09:32:00,
2014-04-21 05:37:00,36.4,31.3,30.21,SW,225,0.0,0.0,82,0.00,,,0.00,WUHU216HW,2014-04-21 09:37:00,
2014-04-21 05:42:00,36.2,31.1,30.22,SW,225,0.0,0.0,82,0.00,,,0.00,WUHU216HW,2014-04-21 09:42:00,
2014-04-21 05:47:00,36.0,31.0,30.22,SW,225,0.0,0.0,82,0.00,,,0.00,WUHU216HW,2014-04-21 09:47:00,
2014-04-21 05:52:00,35.6,30.6,30.21,SW,225,0.0,0.0,82,0.00,,,0.00,WUHU216HW,2014-04-21 09:52:00,
2014-04-21 05:57:00,35.3,30.2,30.21,SW,225,0.0,0.0,82,0.00,,,0.00,WUHU216HW,2014-04-21 09:57:00,
2014-04-21 06:02:00,35.3,30.2,30.22,SW,225,0.0,0.0,82,0.00,,,0.00,WUHU216HW,2014-04-21 10:02:00,
2014-04-21 06:07:00,35.3,30.2,30.22,SW,225,0.0,0.0,82,0.00,,,0.00,WUHU216HW,2014-04-21 10:07:00,
2014-04-21 06:12:00,35.1,30.4,30.22,SW,225,0.0,0.0,83,0.00,,,0.00,WUHU216HW,2014-04-21 10:12:00,
2014-04-21 06:17:00,34.9,30.3,30.22,SW,225,0.0,0.0,83,0.00,,,0.00,WUHU216HW,2014-04-21 10:17:00,
2014-04-21 06:22:00,34.9,29.9,30.22,SW,225,0.0,0.0,82,0.00,,,0.00,WUHU216HW,2014-04-21 10:22:00,
2014-04-21 06:27:00,34.9,29.9,30.22,SW,225,0.0,0.0,82,0.00,,,0.00,WUHU216HW,2014-04-21 10:27:00,
2014-04-21 06:32:00,34.9,30.3,30.22,SW,225,0.0,0.0,83,0.00,,,0.00,WUHU216HW,2014-04-21 10:32:00,
2014-04-21 06:37:00,34.9,30.3,30.22,SW,225,0.0,0.0,83,0.00,,,0.00,WUHU216HW,2014-04-21 10:37:00,
2014-04-21 06:42:00,34.9,30.5,30.22,SW,225,0.0,0.0,84,0.00,,,0.00,WUHU216HW,2014-04-21 10:42:00,
2014-04-21 06:47:00,35.1,30.4,30.22,SW,225,0.0,0.0,83,0.00,,,0.00,WUHU216HW,2014-04-21 10:47:00,
2014-04-21 06:52:00,35.6,31.2,30.22,SW,225,0.0,0.0,84,0.00,,,0.00,WUHU216HW,2014-04-21 10:52:00,
2014-04-21 06:57:00,36.4,32.0,30.21,SW,225,0.0,0.0,84,0.00,,,0.00,WUHU216HW,2014-04-21 10:57:00,
2014-04-21 07:02:00,36.7,31.4,30.21,SW,225,0.0,0.0,81,0.00,,,0.00,WUHU216HW,2014-04-21 11:02:00,
2014-04-21 07:07:00,36.9,31.6,30.21,WSW,248,0.0,0.0,81,0.00,,,0.00,WUHU216HW,2014-04-21 11:07:00,
2014-04-21 07:12:00,37.3,32.0,30.21,WSW,248,0.0,0.0,81,0.00,,,0.00,WUHU216HW,2014-04-21 11:12:00,
2014-04-21 07:17:00,37.8,32.5,30.21,WSW,248,0.0,0.0,81,0.00,,,0.00,WUHU216HW,2014-04-21 11:17:00,
2014-04-21 07:22:00,39.4,33.9,30.21,SW,225,0.0,0.0,80,0.00,,,0.00,WUHU216HW,2014-04-21 11:22:00,
2014-04-21 07:27:00,41.9,35.8,30.21,SW,225,0.0,0.0,79,0.00,,,0.00,WUHU216HW,2014-04-21 11:27:00,
2014-04-21 07:32:00,43.4,36.6,30.21,East,90,0.4,0.7,77,0.00,,,0.00,WUHU216HW,2014-04-21 11:32:00,
2014-04-21 07:37:00,45.2,37.4,30.21,SE,135,0.0,0.7,74,0.00,,,0.00,WUHU216HW,2014-04-21 11:37:00,
2014-04-21 07:42:00,45.0,36.8,30.20,SSE,158,0.4,0.4,73,0.00,,,0.00,WUHU216HW,2014-04-21 11:42:00,
2014-04-21 07:47:00,46.1,37.6,30.20,SE,135,0.7,0.7,72,0.00,,,0.00,WUHU216HW,2014-04-21 11:47:00,
2014-04-21 07:52:00,47.2,38.3,30.20,ESE,113,1.1,1.1,71,0.00,,,0.00,WUHU216HW,2014-04-21 11:52:00,
2014-04-21 07:57:00,47.0,37.4,30.20,East,90,0.0,1.1,69,0.00,,,0.00,WUHU216HW,2014-04-21 11:57:00,
2014-04-21 08:02:00,47.2,37.5,30.20,SW,225,0.4,1.1,69,0.00,,,0.00,WUHU216HW,2014-04-21 12:02:00,
2014-04-21 08:07:00,45.4,35.8,30.21,SW,225,0.7,0.9,69,0.00,,,0.00,WUHU216HW,2014-04-21 12:07:00,
2014-04-21 08:12:00,43.4,35.3,30.20,SW,225,0.4,1.1,73,0.00,,,0.00,WUHU216HW,2014-04-21 12:12:00,
2014-04-21 08:17:00,43.4,35.6,30.20,WSW,248,1.1,1.1,74,0.00,,,0.00,WUHU216HW,2014-04-21 12:17:00,
2014-04-21 08:22:00,44.8,37.0,30.20,WSW,248,0.9,1.1,74,0.00,,,0.00,WUHU216HW,2014-04-21 12:22:00,
2014-04-21 08:27:00,46.1,37.9,30.20,WSW,248,1.1,1.1,73,0.00,,,0.00,WUHU216HW,2014-04-21 12:27:00,
2014-04-21 08:32:00,47.0,37.4,30.19,West,270,1.1,1.8,69,0.00,,,0.00,WUHU216HW,2014-04-21 12:32:00,
2014-04-21 08:37:00,47.2,37.5,30.19,WSW,248,1.3,1.8,69,0.00,,,0.00,WUHU216HW,2014-04-21 12:37:00,
2014-04-21 08:42:00,47.3,37.3,30.19,West,270,1.8,1.8,68,0.00,,,0.00,WUHU216HW,2014-04-21 12:42:00,
2014-04-21 08:47:00,48.1,37.6,30.19,West,270,1.1,1.8,67,0.00,,,0.00,WUHU216HW,2014-04-21 12:47:00,
2014-04-21 08:52:00,48.6,38.1,30.19,SW,225,0.4,1.6,67,0.00,,,0.00,WUHU216HW,2014-04-21 12:52:00,
2014-04-21 08:57:00,50.4,39.9,30.19,SW,225,2.0,2.5,67,0.00,,,0.00,WUHU216HW,2014-04-21 12:57:00,
2014-04-21 09:02:00,51.1,39.3,30.19,WSW,248,1.1,2.5,64,0.00,,,0.00,WUHU216HW,2014-04-21 13:02:00,
2014-04-21 09:07:00,52.0,40.6,30.19,SW,225,1.8,2.2,65,0.00,,,0.00,WUHU216HW,2014-04-21 13:07:00,